createdAt,value
2022-12-27T00:01:33.883Z,0.50
2022-12-27T00:06:27.898Z,0.60
2022-12-27T00:11:23.429Z,0.43
2022-12-27T00:16:19.396Z,0.67
2022-12-27T00:21:13.900Z,0.60
2022-12-27T00:26:12.494Z,0.53
2022-12-27T00:31:05.448Z,0.57
2022-12-27T00:36:00.936Z,0.77
2022-12-27T00:40:53.585Z,0.53
2022-12-27T00:45:45.899Z,0.57
2022-12-27T00:55:46.878Z,0.50
2022-12-27T01:00:38.624Z,0.43
2022-12-27T01:05:30.323Z,0.40
2022-12-27T01:15:28.395Z,0.30
2022-12-27T01:30:32.861Z,0.20
2022-12-27T01:51:24.163Z,0.33
2022-12-27T02:06:57.558Z,0.50
2022-12-27T02:17:35.212Z,0.37
2022-12-27T02:34:41.158Z,0.47
2022-12-27T02:39:39.047Z,0.33
2022-12-27T02:44:49.784Z,0.30
2022-12-27T02:50:02.727Z,0.70
2022-12-27T02:55:31.549Z,0.50
2022-12-27T03:00:44.471Z,0.67
2022-12-27T03:06:12.846Z,0.40
2022-12-27T03:11:23.173Z,0.40
2022-12-27T03:16:55.577Z,0.30
2022-12-27T03:22:08.604Z,0.63
2022-12-27T03:27:04.641Z,0.50
2022-12-27T03:32:20.409Z,0.70
2022-12-27T03:37:39.793Z,0.70
2022-12-27T03:43:04.238Z,0.63
2022-12-27T03:48:05.840Z,0.80
2022-12-27T03:53:15.547Z,0.67
2022-12-27T03:58:07.319Z,0.30
2022-12-27T04:02:59.056Z,0.50
2022-12-27T04:08:09.265Z,0.70
2022-12-27T04:13:19.677Z,0.60
2022-12-27T04:18:30.007Z,0.70
2022-12-27T04:23:40.244Z,0.40
2022-12-27T04:28:51.057Z,0.70
2022-12-27T04:34:01.369Z,1.07
2022-12-27T04:38:53.064Z,0.83
2022-12-27T04:44:03.219Z,0.60
2022-12-27T04:49:13.682Z,0.60
2022-12-27T04:54:36.906Z,0.80
2022-12-27T04:59:47.217Z,0.93
2022-12-27T05:04:40.065Z,1.13
2022-12-27T05:09:50.324Z,0.77
2022-12-27T05:14:42.900Z,0.80
2022-12-27T05:19:34.660Z,0.93
2022-12-27T05:24:46.329Z,1.23
2022-12-27T05:29:38.244Z,1.33
2022-12-27T05:34:30.055Z,1.17
2022-12-27T05:39:21.876Z,1.27
2022-12-27T05:44:13.610Z,1.47
2022-12-27T05:49:05.497Z,1.07
2022-12-27T05:53:57.404Z,0.83
2022-12-27T05:58:53.899Z,1.20
2022-12-27T06:03:46.370Z,1.20
2022-12-27T06:08:39.742Z,0.90
2022-12-27T06:13:32.379Z,1.30
2022-12-27T06:18:24.146Z,1.23
2022-12-27T06:23:15.951Z,1.50
2022-12-27T06:28:07.705Z,1.20
2022-12-27T06:32:59.800Z,1.30
2022-12-27T06:37:52.465Z,1.23
2022-12-27T06:42:44.311Z,1.73
2022-12-27T06:47:37.019Z,1.30
2022-12-27T06:52:29.006Z,1.87
2022-12-27T06:57:20.785Z,1.40
2022-12-27T07:02:12.859Z,1.30
2022-12-27T07:07:04.815Z,1.30
2022-12-27T07:11:57.904Z,1.27
2022-12-27T07:16:50.494Z,1.13
2022-12-27T07:21:43.088Z,1.10
2022-12-27T07:26:34.833Z,1.77
2022-12-27T07:31:31.914Z,1.50
2022-12-27T07:36:30.630Z,1.07
2022-12-27T07:41:22.628Z,1.00
2022-12-27T07:46:19.536Z,0.90
2022-12-27T07:51:13.102Z,1.43
2022-12-27T07:56:23.436Z,1.20
2022-12-27T08:01:21.983Z,1.33
2022-12-27T08:06:24.828Z,1.20
2022-12-27T08:11:17.298Z,1.17
2022-12-27T08:16:21.065Z,0.87
2022-12-27T08:21:19.262Z,0.90
2022-12-27T08:26:11.397Z,1.10
2022-12-27T08:31:11.316Z,0.83
2022-12-27T08:36:44.738Z,1.00
2022-12-27T08:41:23.630Z,0.90
2022-12-27T08:46:15.522Z,0.67
2022-12-27T08:51:12.975Z,0.80
2022-12-27T08:56:07.384Z,1.00
2022-12-27T09:01:10.693Z,0.87
2022-12-27T09:06:26.541Z,1.00
2022-12-27T09:11:26.952Z,1.23
2022-12-27T09:21:34.237Z,0.90
2022-12-27T09:31:39.064Z,0.93
2022-12-27T09:36:31.582Z,1.30
2022-12-27T09:57:47.025Z,1.20
2022-12-27T10:02:39.536Z,0.80
2022-12-27T10:08:11.175Z,1.00
2022-12-27T10:13:41.863Z,1.40
2022-12-27T10:19:06.343Z,1.10
2022-12-27T10:29:27.089Z,0.90
2022-12-27T10:34:24.848Z,1.20
2022-12-27T10:39:30.030Z,1.00
2022-12-27T10:44:23.865Z,1.10
2022-12-27T10:49:33.607Z,1.10
2022-12-27T10:54:30.533Z,1.30
2022-12-27T10:59:39.220Z,0.90
2022-12-27T11:15:04.361Z,0.50
2022-12-27T11:20:02.449Z,0.50
2022-12-27T11:25:01.076Z,1.10
2022-12-27T11:29:58.922Z,0.50
2022-12-27T11:34:56.624Z,0.60
2022-12-27T11:40:34.911Z,0.47
2022-12-27T11:45:52.699Z,0.90
2022-12-27T11:51:16.108Z,0.80
2022-12-27T11:56:21.230Z,0.73
2022-12-27T12:01:37.584Z,0.80
2022-12-27T12:07:13.978Z,0.83
2022-12-27T12:12:37.827Z,0.60
2022-12-27T12:17:46.761Z,0.40
2022-12-27T12:23:14.514Z,0.60
2022-12-27T12:28:59.873Z,0.60
2022-12-27T12:45:53.223Z,1.00
2022-12-27T13:08:30.489Z,0.80
2022-12-27T13:13:51.414Z,0.53
2022-12-27T13:19:14.508Z,0.70
2022-12-27T13:24:32.707Z,1.00
2022-12-27T13:29:41.367Z,0.50
2022-12-27T13:35:04.128Z,0.80
2022-12-27T13:40:17.623Z,0.90
2022-12-27T13:45:44.899Z,0.50
2022-12-27T13:50:43.942Z,0.50
2022-12-27T13:55:54.772Z,0.50
2022-12-27T14:01:30.048Z,0.97
2022-12-27T14:07:06.092Z,0.70
2022-12-27T14:18:46.431Z,0.93
2022-12-27T14:24:02.261Z,1.30
2022-12-27T14:29:35.758Z,1.00
2022-12-27T14:40:56.664Z,0.87
2022-12-27T14:52:04.435Z,0.77
2022-12-27T14:57:27.499Z,0.80
2022-12-27T15:03:04.522Z,0.80
2022-12-27T15:08:21.124Z,0.80
2022-12-27T15:18:52.654Z,0.70
2022-12-27T15:24:30.418Z,1.10
2022-12-27T15:29:52.272Z,0.87
2022-12-27T15:40:37.772Z,0.57
2022-12-27T15:46:17.919Z,0.90
2022-12-27T15:51:40.948Z,0.80
2022-12-27T15:57:17.535Z,1.60
2022-12-27T16:02:37.440Z,1.53
2022-12-27T16:08:19.121Z,1.50
2022-12-27T16:13:11.191Z,1.40
2022-12-27T16:18:04.433Z,1.60
2022-12-27T16:23:07.161Z,1.83
2022-12-27T16:28:17.609Z,2.67
2022-12-27T16:33:34.231Z,2.30
2022-12-27T16:38:26.773Z,3.70
2022-12-27T16:43:42.915Z,3.40
2022-12-27T16:48:58.759Z,3.67
2022-12-27T16:54:22.399Z,3.53
2022-12-27T17:00:13.044Z,4.57
2022-12-27T17:05:36.461Z,3.30
2022-12-27T17:10:28.575Z,3.50
2022-12-27T17:15:22.313Z,3.50
2022-12-27T17:20:19.285Z,3.60
2022-12-27T17:25:18.471Z,5.50
2022-12-27T17:30:21.996Z,7.50
2022-12-27T17:35:52.385Z,7.77
2022-12-27T17:41:39.028Z,6.83
2022-12-27T17:46:51.909Z,6.37
2022-12-27T17:52:12.653Z,9.20
2022-12-27T18:07:47.127Z,5.33
2022-12-27T18:12:44.904Z,5.87
2022-12-27T18:17:45.712Z,5.03
2022-12-27T18:22:46.326Z,4.70
2022-12-27T18:27:38.994Z,5.67
2022-12-27T18:32:59.193Z,7.17
2022-12-27T18:48:14.944Z,7.90
2022-12-27T18:53:27.470Z,5.67
2022-12-27T18:58:24.496Z,6.60
2022-12-27T19:24:36.073Z,5.50
2022-12-27T19:29:34.212Z,8.73
2022-12-27T19:34:54.786Z,8.13
2022-12-27T19:44:54.628Z,6.47
2022-12-27T19:55:02.284Z,6.70
2022-12-27T20:00:05.354Z,6.17
2022-12-27T20:05:00.717Z,6.47
2022-12-27T20:25:11.848Z,6.40
2022-12-27T20:30:05.920Z,9.67
2022-12-27T20:34:57.781Z,9.63
2022-12-27T20:39:49.589Z,9.33
2022-12-27T20:44:43.256Z,8.67
2022-12-27T20:49:37.038Z,6.00
2022-12-27T20:54:29.789Z,5.70
2022-12-27T20:59:21.774Z,6.77
2022-12-27T21:04:15.699Z,6.03
2022-12-27T21:09:08.742Z,5.80
2022-12-27T21:19:13.648Z,7.67
2022-12-27T21:29:20.094Z,9.50
2022-12-27T21:34:12.616Z,8.40
2022-12-27T21:44:13.443Z,7.97
2022-12-27T21:54:21.805Z,6.63
2022-12-27T21:59:16.587Z,8.13
2022-12-27T22:04:09.896Z,6.63
2022-12-27T22:09:07.630Z,6.40
2022-12-27T22:14:01.627Z,6.27
2022-12-27T22:18:56.813Z,4.30
2022-12-27T22:34:08.577Z,4.23
2022-12-27T22:39:03.025Z,4.77
2022-12-27T22:44:01.512Z,4.57
2022-12-27T22:48:58.887Z,5.03
2022-12-27T22:53:51.759Z,5.27
2022-12-27T22:58:45.239Z,4.37
2022-12-27T23:03:37.742Z,4.60
2022-12-27T23:08:31.273Z,5.30
2022-12-27T23:13:26.861Z,4.23
2022-12-27T23:23:27.505Z,5.60
2022-12-27T23:28:20.750Z,5.20
2022-12-27T23:33:12.689Z,6.30
2022-12-27T23:38:05.663Z,5.83
2022-12-27T23:43:12.505Z,5.73
2022-12-27T23:48:12.920Z,5.37
2022-12-27T23:53:05.806Z,6.63
2022-12-27T23:57:57.976Z,6.00
